Time;durP1;ratioP1;P1;durP2;ratioP2;P2;SDS_P1;SDS_P2;PMS_P1;PMS_P2;Temp;Humidity;BMP_temperature;BMP_pressure;BME280_temperature;BME280_humidity;BME280_pressure;Samples;Min_cycle;Max_cycle;Signal;HPM_P1;HPM_P2
2022/09/26 00:01:26;;;;;;;24.70;14.63;;;;;;;10.57;93.87;98528.53;8400346;28;20549;-78
2022/09/26 00:05:31;;;;;;;36.28;14.48;;;;;;;10.48;93.70;98522.38;8408284;28;20068;-78
2022/09/26 00:09:32;;;;;;;26.67;14.93;;;;;;;10.41;93.71;98514.00;8408574;28;20036;-78
2022/09/26 00:13:36;;;;;;;26.85;13.25;;;;;;;10.35;93.81;98509.88;8392884;28;20058;-78
2022/09/26 00:17:37;;;;;;;23.80;12.40;;;;;;;10.29;93.68;98505.75;8418313;28;20055;-78
2022/09/26 00:21:38;;;;;;;22.02;13.05;;;;;;;10.25;93.82;98499.44;8371447;28;20052;-78
2022/09/26 00:25:46;;;;;;;28.50;15.23;;;;;;;10.21;94.03;98503.84;8403628;28;20048;-78
2022/09/26 00:29:47;;;;;;;25.13;14.23;;;;;;;10.17;93.93;98497.53;8409519;28;20051;-78
2022/09/26 00:33:50;;;;;;;27.20;13.82;;;;;;;10.11;93.89;98496.88;8397074;28;20072;-78
2022/09/26 00:37:51;;;;;;;29.55;14.63;;;;;;;10.06;93.81;98496.22;8415545;28;20049;-78
2022/09/26 00:41:52;;;;;;;22.80;14.02;;;;;;;10.02;93.72;98484.50;8420629;28;20112;-78
2022/09/26 00:45:56;;;;;;;21.33;13.88;;;;;;;9.95;93.53;98484.19;8401359;28;20064;-78
2022/09/26 00:50:01;;;;;;;25.55;13.15;;;;;;;9.87;93.65;98476.91;8406211;28;20091;-78
2022/09/26 00:54:04;;;;;;;21.90;14.00;;;;;;;9.83;93.81;98481.38;8344573;28;20534;-78
2022/09/26 00:58:21;;;;;;;23.98;13.05;;;;;;;9.78;93.73;98473.44;8402254;28;20059;-78
2022/09/26 01:02:24;;;;;;;30.88;13.43;;;;;;;9.71;93.82;98469.31;8403170;28;20362;-79
2022/09/26 01:06:25;;;;;;;23.65;13.57;;;;;;;9.68;93.66;98469.94;8407450;28;20052;-78
2022/09/26 01:10:28;;;;;;;26.42;15.55;;;;;;;9.64;93.49;98463.59;8410596;28;20684;-78
2022/09/26 01:14:31;;;;;;;29.30;17.08;;;;;;;9.63;93.62;98455.81;8416362;28;20545;-78
2022/09/26 01:18:32;;;;;;;32.40;15.35;;;;;;;9.59;93.66;98455.66;8424219;28;20045;-81
2022/09/26 01:22:54;;;;;;;32.03;18.50;;;;;;;9.55;93.45;98460.13;8406476;28;20529;-79
2022/09/26 01:27:04;;;;;;;34.80;17.88;;;;;;;9.53;93.40;98456.94;8383254;28;20037;-79
2022/09/26 01:31:17;;;;;;;34.85;19.98;;;;;;;9.50;93.54;98441.41;8415445;28;20060;-78
2022/09/26 01:35:37;;;;;;;31.95;18.83;;;;;;;9.46;93.62;98445.84;8399601;28;20048;-79
2022/09/26 01:40:06;;;;;;;29.00;18.58;;;;;;;9.42;93.69;98442.19;8414284;28;20040;-79
2022/09/26 01:44:46;;;;;;;40.75;17.77;;;;;;;9.36;93.58;98440.75;8416230;28;20049;-79
2022/09/26 01:48:58;;;;;;;33.22;19.92;;;;;;;9.30;93.27;98442.03;8337115;28;20065;-78
2022/09/26 01:53:25;;;;;;;30.88;19.67;;;;;;;9.25;93.55;98450.28;8339597;28;20052;-79
2022/09/26 01:57:34;;;;;;;28.63;19.17;;;;;;;9.19;93.56;98435.38;8332845;28;20503;-79
2022/09/26 02:01:39;;;;;;;40.45;19.45;;;;;;;9.12;93.59;98440.44;8332960;28;20084;-79
2022/09/26 02:05:53;;;;;;;36.35;21.05;;;;;;;9.06;93.52;98431.69;8324571;28;20057;-78
2022/09/26 02:09:58;;;;;;;39.00;23.13;;;;;;;9.03;93.39;98423.47;8337436;28;20132;-78
2022/09/26 02:14:14;;;;;;;36.13;22.02;;;;;;;9.01;93.66;98422.97;8332277;28;20063;-79
2022/09/26 02:18:19;;;;;;;39.15;22.60;;;;;;;8.99;93.46;98414.44;8332467;28;20057;-78
2022/09/26 02:22:20;;;;;;;39.90;22.30;;;;;;;8.98;93.44;98424.41;8350920;28;20179;-79
2022/09/26 02:26:22;;;;;;;39.30;21.67;;;;;;;8.95;93.52;98413.47;8424696;28;20055;-78
2022/09/26 02:30:25;;;;;;;36.40;21.92;;;;;;;8.88;93.42;98398.56;8404026;28;20061;-78
2022/09/26 02:34:27;;;;;;;41.67;23.48;;;;;;;8.86;93.42;98395.41;8404824;28;20487;-79
2022/09/26 02:38:30;;;;;;;42.60;24.42;;;;;;;8.82;93.61;98394.44;8409609;28;20106;-78
2022/09/26 02:42:41;;;;;;;35.75;21.90;;;;;;;8.77;93.55;98397.28;8398482;28;20067;-78
2022/09/26 02:47:13;;;;;;;36.80;22.02;;;;;;;8.69;93.56;98389.97;8401589;28;20464;-79
2022/09/26 02:51:37;;;;;;;35.83;21.80;;;;;;;8.64;93.43;98392.81;8412719;28;20059;-78
2022/09/26 02:55:47;;;;;;;39.63;23.42;;;;;;;8.57;93.23;98387.09;8427744;28;20474;-78
2022/09/26 03:00:00;;;;;;;39.33;24.38;;;;;;;8.54;93.25;98393.09;8407683;28;20792;-78
2022/09/26 03:04:02;;;;;;;41.28;22.27;;;;;;;8.54;93.29;98387.72;8412843;28;20506;-79
2022/09/26 03:08:13;;;;;;;37.95;22.83;;;;;;;8.52;93.15;98384.53;8418428;28;20064;-78
2022/09/26 03:12:15;;;;;;;33.47;22.70;;;;;;;8.54;93.09;98387.72;8423229;28;20040;-78
2022/09/26 03:16:16;;;;;;;40.42;24.02;;;;;;;8.52;93.18;98379.16;8399682;28;20063;-78
2022/09/26 03:20:20;;;;;;;33.78;22.65;;;;;;;8.50;93.26;98381.38;8350661;28;20055;-78
2022/09/26 03:24:22;;;;;;;32.88;22.23;;;;;;;8.49;93.49;98374.41;8406968;28;20511;-78
2022/09/26 03:28:23;;;;;;;36.83;23.10;;;;;;;8.50;93.20;98376.00;8401453;28;20508;-78
2022/09/26 03:32:24;;;;;;;37.72;23.52;;;;;;;8.51;93.20;98369.53;8404729;28;20056;-78
2022/09/26 03:36:25;;;;;;;37.58;21.95;;;;;;;8.53;93.26;98369.97;8420108;28;20122;-78
2022/09/26 03:40:27;;;;;;;47.75;24.48;;;;;;;8.57;93.12;98365.56;8416910;28;20052;-77
2022/09/26 03:44:28;;;;;;;44.65;24.63;;;;;;;8.63;93.18;98368.88;8420205;28;20533;-78
2022/09/26 03:48:30;;;;;;;46.83;26.52;;;;;;;8.71;93.24;98366.25;8420128;28;20062;-78
2022/09/26 03:52:30;;;;;;;77.25;30.17;;;;;;;8.82;93.40;98364.03;8402757;28;20382;-77
2022/09/26 03:56:31;;;;;;;87.93;27.88;;;;;;;8.92;93.37;98365.63;8420118;28;20046;-78
2022/09/26 04:00:32;;;;;;;101.40;26.98;;;;;;;8.99;93.70;98363.25;8418739;28;20521;-78
2022/09/26 04:04:33;;;;;;;194.23;27.80;;;;;;;9.04;93.91;98363.09;8414894;28;20056;-78
2022/09/26 04:08:39;;;;;;;121.13;29.95;;;;;;;9.06;94.13;98367.06;8419185;28;20221;-78
2022/09/26 04:12:40;;;;;;;154.02;28.90;;;;;;;9.11;94.42;98353.44;8414305;28;20070;-78
2022/09/26 04:16:41;;;;;;;123.20;27.05;;;;;;;9.12;94.93;98351.53;8417573;28;20079;-78
2022/09/26 04:20:42;;;;;;;123.55;28.25;;;;;;;9.11;95.44;98336.47;8385807;28;20059;-78
2022/09/26 04:24:43;;;;;;;76.13;26.42;;;;;;;9.11;95.78;98341.88;8425707;28;20670;-78
2022/09/26 04:28:44;;;;;;;80.43;25.33;;;;;;;9.08;96.01;98337.13;8412399;28;20070;-78
2022/09/26 04:32:45;;;;;;;69.97;27.02;;;;;;;9.05;96.22;98329.66;8416959;28;20607;-78
2022/09/26 04:36:50;;;;;;;60.50;26.63;;;;;;;9.02;96.12;98333.00;8429510;28;20459;-79
2022/09/26 04:40:50;;;;;;;50.38;27.23;;;;;;;8.98;96.82;98332.06;8414700;28;20112;-78
2022/09/26 04:44:51;;;;;;;50.85;26.92;;;;;;;8.96;97.08;98323.50;8408269;28;20052;-78
2022/09/26 04:48:54;;;;;;;45.50;25.83;;;;;;;8.94;97.22;98325.69;8427179;28;20075;-79
2022/09/26 04:52:55;;;;;;;45.13;26.60;;;;;;;8.93;97.39;98330.31;8425687;28;20481;-79
2022/09/26 04:56:59;;;;;;;38.28;24.73;;;;;;;8.92;97.31;98333.31;8411457;28;20127;-78
2022/09/26 05:01:08;;;;;;;40.33;24.15;;;;;;;8.90;97.59;98320.94;8423483;28;20066;-79
2022/09/26 05:05:09;;;;;;;43.92;23.75;;;;;;;8.89;97.63;98324.75;8397776;28;20074;-80
2022/09/26 05:09:10;;;;;;;38.75;24.38;;;;;;;8.86;97.42;98319.22;8375091;28;20078;-79
2022/09/26 05:13:11;;;;;;;35.85;22.58;;;;;;;8.85;97.70;98323.81;8416096;28;20120;-79
2022/09/26 05:17:12;;;;;;;32.85;22.83;;;;;;;8.86;97.39;98314.63;8420468;28;20044;-80
2022/09/26 05:21:13;;;;;;;34.22;21.60;;;;;;;8.90;97.34;98318.25;8407439;28;20089;-79
2022/09/26 05:29:33;;;;;;;35.72;22.17;;;;;;;8.97;97.29;98308.91;8390965;28;20051;-79
2022/09/26 05:33:36;;;;;;;32.83;21.95;;;;;;;9.05;97.09;98327.75;8384025;28;20140;-78
2022/09/26 05:37:37;;;;;;;41.88;22.35;;;;;;;9.12;96.95;98327.28;8389314;28;20106;-78
2022/09/26 05:41:38;;;;;;;30.38;20.77;;;;;;;9.19;96.57;98322.22;8394058;28;20064;-79
2022/09/26 05:45:38;;;;;;;52.63;29.83;;;;;;;9.26;96.58;98312.53;8399140;28;20429;-79
2022/09/26 05:49:40;;;;;;;61.08;31.45;;;;;;;9.35;96.23;98320.63;8392832;28;20135;-79
2022/09/26 05:53:42;;;;;;;38.72;24.08;;;;;;;9.46;96.10;98316.50;8366857;28;20094;-78
2022/09/26 05:57:50;;;;;;;39.05;25.50;;;;;;;9.58;96.24;98313.91;8374685;28;20049;-78
2022/09/26 06:01:51;;;;;;;45.27;25.70;;;;;;;9.74;96.15;98317.66;8372374;28;20717;-78
2022/09/26 06:05:53;;;;;;;44.35;28.95;;;;;;;9.91;95.61;98318.72;8368757;28;20067;-79
2022/09/26 06:09:56;;;;;;;54.10;33.75;;;;;;;10.06;95.50;98318.19;8371322;28;20045;-78
2022/09/26 06:13:59;;;;;;;60.67;35.90;;;;;;;10.21;95.69;98323.06;8368796;28;20059;-79
2022/09/26 06:18:05;;;;;;;48.53;30.85;;;;;;;10.32;96.56;98321.59;8376334;28;20053;-77
2022/09/26 06:22:06;;;;;;;37.17;25.33;;;;;;;10.43;97.20;98322.78;8362572;28;20049;-78
2022/09/26 06:26:10;;;;;;;37.13;26.08;;;;;;;10.53;97.54;98322.41;8390284;28;20040;-77
2022/09/26 06:30:11;;;;;;;35.42;24.30;;;;;;;10.63;97.48;98331.28;8374714;28;20123;-78
2022/09/26 06:34:13;;;;;;;33.33;23.63;;;;;;;10.73;97.14;98330.88;8376699;28;20068;-78
2022/09/26 06:38:14;;;;;;;36.20;25.23;;;;;;;10.82;97.23;98328.91;8373019;28;20037;-78
2022/09/26 06:42:15;;;;;;;33.70;22.63;;;;;;;10.89;97.29;98329.19;8376889;28;20041;-78
2022/09/26 06:46:16;;;;;;;31.90;23.33;;;;;;;10.91;98.13;98343.13;8386887;28;20059;-79
2022/09/26 06:50:17;;;;;;;35.85;21.95;;;;;;;10.97;98.41;98352.63;8381717;28;20071;-80
2022/09/26 06:54:18;;;;;;;34.67;22.45;;;;;;;11.02;98.32;98333.53;8396968;28;20089;-78
2022/09/26 06:58:20;;;;;;;32.70;21.75;;;;;;;11.08;98.34;98337.59;8399245;28;20568;-78
2022/09/26 07:02:24;;;;;;;34.17;22.13;;;;;;;11.07;98.97;98338.72;8399060;28;20051;-78
2022/09/26 07:06:25;;;;;;;31.83;21.83;;;;;;;11.06;99.68;98350.66;8397290;28;20044;-79
2022/09/26 07:10:29;;;;;;;29.52;20.30;;;;;;;11.04;99.70;98352.91;8399338;28;20512;-79
2022/09/26 07:14:30;;;;;;;27.30;19.38;;;;;;;11.01;99.98;98353.56;8410883;28;20057;-78
2022/09/26 07:18:31;;;;;;;29.00;18.35;;;;;;;10.98;100.00;98354.22;8398221;28;20057;-79
2022/09/26 07:22:32;;;;;;;25.27;17.65;;;;;;;10.98;100.00;98355.00;8399842;28;20083;-79
2022/09/26 07:26:33;;;;;;;32.50;18.38;;;;;;;10.97;100.00;98347.22;8399857;28;20049;-80
2022/09/26 07:30:34;;;;;;;28.60;17.65;;;;;;;10.96;100.00;98353.75;8398519;28;20055;-79
2022/09/26 07:34:36;;;;;;;26.27;18.92;;;;;;;11.02;100.00;98349.72;8420356;28;20086;-80
2022/09/26 07:38:37;;;;;;;27.73;18.80;;;;;;;11.01;100.00;98350.84;8398689;28;20041;-82
2022/09/26 07:42:38;;;;;;;28.45;19.80;;;;;;;11.03;100.00;98345.91;8409505;28;20067;-81
2022/09/26 07:51:00;;;;;;;27.55;19.95;;;;;;;11.09;100.00;98338.41;8399110;28;20079;-81
2022/09/26 07:55:01;;;;;;;33.95;20.92;;;;;;;11.09;100.00;98339.19;8398858;28;20064;-80
2022/09/26 07:59:04;;;;;;;33.88;21.55;;;;;;;11.10;100.00;98335.38;8409391;28;20486;-81
2022/09/26 08:03:05;;;;;;;30.70;21.00;;;;;;;11.08;100.00;98326.81;8398952;28;20060;-82
2022/09/26 08:07:07;;;;;;;33.53;22.20;;;;;;;11.12;100.00;98327.72;8409316;28;20052;-81
2022/09/26 08:11:14;;;;;;;37.63;22.45;;;;;;;11.23;100.00;98326.19;8430605;28;20044;-81
2022/09/26 08:15:16;;;;;;;33.28;22.42;;;;;;;11.30;100.00;98334.56;8408916;28;20477;-81
2022/09/26 08:19:17;;;;;;;35.65;23.85;;;;;;;11.33;100.00;98333.88;8432050;28;20064;-81
2022/09/26 08:23:19;;;;;;;36.85;23.88;;;;;;;11.38;100.00;98330.97;8431889;28;20055;-80
2022/09/26 08:27:21;;;;;;;42.38;24.88;;;;;;;11.39;100.00;98321.75;8428689;28;20473;-79
2022/09/26 08:31:22;;;;;;;34.65;23.80;;;;;;;11.54;100.00;98333.06;8431376;28;20070;-79
2022/09/26 08:35:24;;;;;;;40.65;25.38;;;;;;;11.58;100.00;98328.59;8419100;28;20045;-79
2022/09/26 08:39:25;;;;;;;39.20;26.73;;;;;;;11.59;100.00;98330.94;8426031;28;20438;-79
2022/09/26 08:43:48;;;;;;;36.17;25.98;;;;;;;11.59;100.00;98325.53;8406406;28;20056;-79
2022/09/26 08:47:55;;;;;;;38.53;27.45;;;;;;;11.69;100.00;98324.31;8327382;28;20556;-79
2022/09/26 08:52:03;;;;;;;42.17;27.20;;;;;;;11.79;100.00;98329.34;8260566;28;20050;-79
2022/09/26 08:56:19;;;;;;;40.67;28.50;;;;;;;11.85;100.00;98333.41;8237798;28;20070;-79
2022/09/26 09:00:23;;;;;;;43.60;27.92;;;;;;;11.92;100.00;98333.63;8229480;28;20057;-78
2022/09/26 09:04:30;;;;;;;44.47;28.60;;;;;;;11.93;100.00;98335.22;8189113;28;20602;-79
2022/09/26 09:08:50;;;;;;;39.90;26.77;;;;;;;11.91;100.00;98337.47;8252123;28;20078;-79
2022/09/26 09:13:03;;;;;;;49.00;28.67;;;;;;;11.91;100.00;98332.06;8225636;28;20042;-79
2022/09/26 09:17:15;;;;;;;39.95;27.20;;;;;;;11.90;100.00;98321.59;8261251;28;20149;-79
2022/09/26 09:21:45;;;;;;;41.67;28.10;;;;;;;11.91;100.00;98315.81;8263866;28;20474;-78
2022/09/26 09:26:10;;;;;;;38.80;27.50;;;;;;;11.88;100.00;98321.91;8336388;28;20085;-79
2022/09/26 09:30:27;;;;;;;39.17;28.45;;;;;;;11.88;100.00;98327.31;8336019;28;20057;-80
2022/09/26 09:34:34;;;;;;;41.95;28.83;;;;;;;11.82;100.00;98323.25;8320411;28;20486;-80
2022/09/26 09:38:37;;;;;;;40.58;28.42;;;;;;;11.74;100.00;98322.22;8342588;28;20053;-80
2022/09/26 09:42:42;;;;;;;44.90;29.73;;;;;;;11.72;100.00;98329.06;8336214;28;20053;-81
2022/09/26 09:46:43;;;;;;;40.63;29.25;;;;;;;11.76;100.00;98324.59;8337463;28;20149;-79
2022/09/26 09:51:11;;;;;;;46.72;30.65;;;;;;;11.86;100.00;98329.56;8304821;28;20042;-79
2022/09/26 09:55:17;;;;;;;44.75;29.17;;;;;;;11.93;100.00;98334.44;8345199;28;20082;-80
2022/09/26 09:59:18;;;;;;;51.67;31.40;;;;;;;11.98;100.00;98336.91;8429048;28;20500;-79
2022/09/26 10:03:36;;;;;;;47.05;29.63;;;;;;;12.01;100.00;98337.03;8415022;28;20481;-79
2022/09/26 10:07:37;;;;;;;45.58;27.95;;;;;;;12.02;100.00;98338.63;8412647;28;20036;-79
2022/09/26 10:11:40;;;;;;;42.03;27.85;;;;;;;12.05;100.00;98348.78;8409750;28;20048;-80
2022/09/26 10:15:46;;;;;;;42.83;28.48;;;;;;;12.01;100.00;98337.03;8426291;28;20378;-81
2022/09/26 10:19:47;;;;;;;43.58;29.02;;;;;;;12.01;100.00;98336.22;8427283;28;20050;-80
2022/09/26 10:23:49;;;;;;;45.10;29.55;;;;;;;12.05;100.00;98343.38;8428607;28;20414;-79
2022/09/26 10:27:54;;;;;;;42.70;29.38;;;;;;;12.10;100.00;98345.84;8409244;28;20891;-80
2022/09/26 10:31:57;;;;;;;44.40;28.10;;;;;;;12.13;100.00;98339.75;8426870;28;20085;-80
2022/09/26 10:36:09;;;;;;;45.38;29.90;;;;;;;12.23;100.00;98350.13;8426950;28;20055;-79
2022/09/26 10:40:49;;;;;;;43.60;29.45;;;;;;;12.32;100.00;98346.56;8428371;28;20527;-80
2022/09/26 10:44:56;;;;;;;46.17;29.00;;;;;;;12.16;100.00;98349.91;8418284;28;20073;-79
2022/09/26 10:49:00;;;;;;;41.58;29.27;;;;;;;12.09;100.00;98349.69;8428318;28;20442;-80
2022/09/26 10:53:07;;;;;;;49.22;29.85;;;;;;;12.13;100.00;98356.00;8428077;28;20405;-79
2022/09/26 10:57:17;;;;;;;43.60;29.30;;;;;;;12.18;100.00;98353.06;8428271;28;20059;-79
2022/09/26 11:01:24;;;;;;;48.15;29.70;;;;;;;12.20;100.00;98345.41;8428051;28;20052;-81
2022/09/26 11:09:46;;;;;;;41.45;27.40;;;;;;;12.18;100.00;98342.25;8427959;28;20052;-80
2022/09/26 11:14:05;;;;;;;40.28;28.38;;;;;;;12.17;100.00;98345.28;8430857;28;20048;-80
2022/09/26 11:18:19;;;;;;;40.63;27.05;;;;;;;12.13;100.00;98345.16;8433960;28;20052;-78
2022/09/26 11:22:40;;;;;;;44.08;27.52;;;;;;;12.13;100.00;98334.34;8432405;28;20056;-79
2022/09/26 11:26:58;;;;;;;52.80;28.73;;;;;;;12.22;100.00;98337.72;8432113;28;20033;-80
2022/09/26 11:31:04;;;;;;;35.45;24.73;;;;;;;12.22;100.00;98332.31;8413970;28;20055;-79
2022/09/26 11:35:12;;;;;;;32.78;23.33;;;;;;;12.31;100.00;98328.72;8432753;28;20090;-79
2022/09/26 11:39:32;;;;;;;30.88;21.08;;;;;;;12.31;100.00;98328.72;8431577;28;20048;-79
2022/09/26 11:43:43;;;;;;;29.08;19.90;;;;;;;12.35;100.00;98319.56;8429158;28;20416;-79
2022/09/26 11:48:05;;;;;;;27.45;18.60;;;;;;;12.31;100.00;98317.88;8427018;28;20101;-80
2022/09/26 11:52:11;;;;;;;29.25;19.55;;;;;;;12.32;100.00;98308.66;8432452;28;20051;-80
2022/09/26 11:56:28;;;;;;;27.08;17.98;;;;;;;12.35;100.00;98316.06;8432397;28;20078;-81
2022/09/26 12:00:41;;;;;;;23.17;16.17;;;;;;;12.42;100.00;98313.59;8432020;28;20048;-81
2022/09/26 12:04:53;;;;;;;18.73;13.73;;;;;;;12.56;100.00;98300.50;8417828;28;20097;-79
2022/09/26 12:09:08;;;;;;;17.95;12.57;;;;;;;12.72;100.00;98293.25;8431892;28;20040;-81
2022/09/26 12:13:33;;;;;;;16.83;11.15;;;;;;;12.69;99.96;98297.41;8430947;28;20445;-80
2022/09/26 12:18:03;;;;;;;15.18;10.65;;;;;;;12.75;99.95;98300.66;8431501;28;20085;-80
2022/09/26 12:22:28;;;;;;;14.73;11.13;;;;;;;12.68;99.98;98305.91;8327900;28;20050;-81
2022/09/26 12:26:54;;;;;;;18.10;11.63;;;;;;;12.50;100.00;98304.56;8327555;28;20097;-79
2022/09/26 12:31:09;;;;;;;16.52;12.10;;;;;;;12.47;100.00;98299.84;8294594;28;20050;-79
2022/09/26 12:35:19;;;;;;;17.45;11.60;;;;;;;12.53;100.00;98299.25;8295424;28;20088;-80
2022/09/26 12:39:32;;;;;;;21.52;11.10;;;;;;;12.64;100.00;98299.56;8294761;28;20411;-80
2022/09/26 12:43:34;;;;;;;21.92;14.43;;;;;;;12.57;100.00;98299.38;8291160;28;20054;-80
2022/09/26 12:47:44;;;;;;;22.95;14.55;;;;;;;12.49;100.00;98292.13;8289338;28;20149;-79
2022/09/26 12:51:54;;;;;;;20.15;13.70;;;;;;;12.43;100.00;98282.66;8287706;28;20038;-80
2022/09/26 12:56:02;;;;;;;17.80;12.35;;;;;;;12.47;100.00;98278.16;8229289;28;20046;-80
2022/09/26 13:00:17;;;;;;;20.02;12.00;;;;;;;12.50;100.00;98277.47;8296387;28;20064;-80
2022/09/26 13:04:39;;;;;;;17.75;12.23;;;;;;;12.56;100.00;98286.94;8296455;28;20768;-80
2022/09/26 13:09:01;;;;;;;18.15;12.43;;;;;;;12.65;99.71;98274.06;8326622;28;20186;-79
2022/09/26 13:13:22;;;;;;;17.63;11.80;;;;;;;12.78;99.06;98272.91;8331505;28;20053;-79
2022/09/26 13:17:39;;;;;;;15.30;11.35;;;;;;;12.99;98.02;98273.53;8322594;28;20065;-80
2022/09/26 13:21:44;;;;;;;16.63;10.80;;;;;;;13.11;97.38;98276.19;8296552;28;20042;-80
2022/09/26 13:25:51;;;;;;;18.42;11.95;;;;;;;13.16;96.78;98268.97;8331443;28;20072;-81
2022/09/26 13:30:01;;;;;;;15.45;11.30;;;;;;;13.21;96.66;98268.72;8387318;28;20044;-79
2022/09/26 13:34:28;;;;;;;18.33;10.88;;;;;;;13.15;96.76;98267.38;8395640;28;20052;-80
2022/09/26 13:39:08;;;;;;;16.92;11.20;;;;;;;13.07;96.79;98269.88;8392501;28;20810;-80
2022/09/26 13:43:29;;;;;;;17.63;10.98;;;;;;;13.06;96.79;98257.44;8227708;28;20061;-81
2022/09/26 13:47:37;;;;;;;15.10;10.10;;;;;;;13.04;96.77;98259.72;8230352;28;20535;-80
2022/09/26 13:51:44;;;;;;;16.00;11.43;;;;;;;12.95;96.76;98253.66;8164297;29;20151;-80
2022/09/26 13:55:45;;;;;;;17.88;11.60;;;;;;;13.01;96.90;98262.31;8164077;29;20059;-79
2022/09/26 13:59:53;;;;;;;17.73;12.00;;;;;;;12.98;96.67;98250.25;8163042;29;20056;-80
2022/09/26 14:04:18;;;;;;;18.42;11.80;;;;;;;13.04;96.67;98248.88;8165838;29;20051;-81
2022/09/26 14:13:11;;;;;;;17.98;11.27;;;;;;;13.00;96.72;98248.00;8163007;29;20047;-80
2022/09/26 14:17:46;;;;;;;15.70;11.35;;;;;;;12.97;96.98;98243.25;8156050;28;20064;-80
2022/09/26 14:22:14;;;;;;;16.60;11.48;;;;;;;12.99;97.06;98246.41;8234727;28;20444;-80
2022/09/26 14:26:20;;;;;;;17.02;12.18;;;;;;;13.02;96.97;98234.88;8247062;28;20463;-80
2022/09/26 14:30:28;;;;;;;23.85;13.88;;;;;;;13.07;96.62;98231.91;8252940;28;20050;-80
2022/09/26 14:34:53;;;;;;;;;;;;;;;13.18;96.47;98226.03;8258808;28;20057;-81
2022/09/26 14:38:54;;;;;;;19.65;11.57;;;;;;;13.30;95.48;98217.84;8191463;29;19933;-80
2022/09/26 14:42:57;;;;;;;18.80;10.60;;;;;;;13.31;94.50;98214.00;8171812;28;20055;-79
2022/09/26 14:46:57;;;;;;;14.15;9.48;;;;;;;13.22;93.79;98205.25;8197082;28;20055;-81
2022/09/26 14:51:04;;;;;;;15.80;9.95;;;;;;;13.13;93.42;98208.09;8203817;28;20105;-81
2022/09/26 14:55:06;;;;;;;16.70;10.90;;;;;;;13.24;93.53;98202.94;8215839;28;20115;-80
2022/09/26 14:59:31;;;;;;;14.80;9.05;;;;;;;13.41;92.81;98198.00;8301859;28;20050;-80
2022/09/26 15:03:33;;;;;;;13.68;8.00;;;;;;;13.44;92.04;98196.50;8293050;28;20741;-81
2022/09/26 15:07:55;;;;;;;14.25;7.88;;;;;;;13.34;91.54;98191.59;8330745;28;20106;-81
2022/09/26 15:11:58;;;;;;;13.05;8.18;;;;;;;13.34;91.82;98197.00;8324028;28;20054;-80
2022/09/26 15:16:14;;;;;;;15.45;9.23;;;;;;;13.28;92.19;98198.41;8373999;28;20503;-81
2022/09/26 15:20:18;;;;;;;13.45;8.98;;;;;;;13.25;92.65;98199.09;8423282;28;20056;-80
2022/09/26 15:24:28;;;;;;;12.70;7.82;;;;;;;13.30;92.61;98191.50;8417737;28;20032;-80
2022/09/26 15:28:35;;;;;;;12.80;8.20;;;;;;;13.42;92.36;98185.22;8399823;28;20052;-81
2022/09/26 15:32:37;;;;;;;14.10;7.88;;;;;;;13.46;92.29;98188.81;8416290;28;20049;-80
2022/09/26 15:36:39;;;;;;;13.90;7.30;;;;;;;13.28;92.44;98182.91;8420824;28;20427;-80
2022/09/26 15:40:40;;;;;;;10.90;7.47;;;;;;;13.12;93.13;98179.41;8426770;28;20052;-80
2022/09/26 15:44:57;;;;;;;43.10;21.40;;;;;;;13.03;93.36;98182.25;8423127;28;20036;-80
2022/09/26 15:48:59;;;;;;;13.55;7.82;;;;;;;13.03;93.38;98176.81;8370960;28;20054;-80
2022/09/26 15:53:01;;;;;;;13.35;7.72;;;;;;;13.03;93.63;98171.41;8429596;28;20046;-81
2022/09/26 15:57:06;;;;;;;12.75;7.00;;;;;;;13.05;93.57;98171.88;8427224;28;20044;-81
2022/09/26 16:01:08;;;;;;;11.63;7.57;;;;;;;13.03;93.53;98176.03;8416541;28;20120;-81
2022/09/26 16:05:10;;;;;;;13.27;8.18;;;;;;;12.91;93.60;98174.16;8362512;28;20541;-80
2022/09/26 16:09:14;;;;;;;11.13;8.02;;;;;;;12.76;93.96;98180.34;8394454;28;20040;-80
2022/09/26 16:13:24;;;;;;;9.35;6.78;;;;;;;12.62;94.33;98182.66;8395368;28;20068;-81
2022/09/26 16:17:27;;;;;;;9.48;7.07;;;;;;;12.50;94.76;98174.56;8388402;28;20397;-80
2022/09/26 16:21:35;;;;;;;10.27;6.20;;;;;;;12.37;95.26;98167.63;8396059;28;20386;-80
2022/09/26 16:25:39;;;;;;;9.23;6.07;;;;;;;12.23;95.62;98171.47;8379071;28;20040;-80
2022/09/26 16:29:40;;;;;;;7.80;5.55;;;;;;;12.09;95.76;98171.06;8393653;28;20045;-80
2022/09/26 16:33:48;;;;;;;7.32;5.05;;;;;;;11.94;96.16;98163.66;8392833;28;20413;-80
2022/09/26 16:38:04;;;;;;;10.82;5.28;;;;;;;11.75;96.46;98171.53;8400122;28;20130;-80
2022/09/26 16:42:13;;;;;;;9.13;5.80;;;;;;;11.55;96.95;98172.41;8399629;28;21185;-80
2022/09/26 16:46:17;;;;;;;12.02;5.40;;;;;;;11.36;96.97;98181.88;8394847;28;20043;-81
2022/09/26 16:50:32;;;;;;;9.35;5.40;;;;;;;11.18;97.28;98175.06;8396359;28;20139;-80
2022/09/26 16:54:34;;;;;;;11.55;5.07;;;;;;;11.03;97.47;98173.00;8393999;28;20375;-80
2022/09/26 16:58:35;;;;;;;10.75;7.15;;;;;;;10.87;97.52;98174.75;8396324;28;20049;-79
2022/09/26 17:02:37;;;;;;;12.88;8.07;;;;;;;10.77;97.32;98178.66;8395584;28;20048;-79
2022/09/26 17:06:38;;;;;;;17.55;8.95;;;;;;;10.69;97.18;98189.53;8405930;28;20037;-79
2022/09/26 17:10:40;;;;;;;19.58;10.77;;;;;;;10.56;96.97;98186.78;8396879;28;20057;-79
2022/09/26 17:14:42;;;;;;;22.25;11.82;;;;;;;10.44;96.93;98184.03;8414560;28;20174;-79
2022/09/26 17:18:44;;;;;;;25.83;13.63;;;;;;;10.33;96.87;98193.63;8420334;28;20110;-80
2022/09/26 17:22:45;;;;;;;23.98;13.85;;;;;;;10.22;96.92;98176.25;8392487;28;20041;-80
2022/09/26 17:26:54;;;;;;;29.23;16.52;;;;;;;10.16;96.82;98183.75;8403544;28;20040;-78
2022/09/26 17:30:56;;;;;;;26.65;15.05;;;;;;;10.10;96.47;98178.81;8419643;28;20074;-79
2022/09/26 17:35:00;;;;;;;22.73;12.20;;;;;;;10.03;96.36;98178.56;8408831;28;20033;-79
2022/09/26 17:39:01;;;;;;;21.40;10.77;;;;;;;9.91;96.19;98170.41;8405541;28;20478;-79
2022/09/26 17:43:04;;;;;;;21.35;10.82;;;;;;;9.84;96.21;98170.09;8394009;28;20044;-79
2022/09/26 17:47:05;;;;;;;28.83;11.02;;;;;;;9.77;95.93;98169.84;8393407;28;20048;-79
2022/09/26 17:51:07;;;;;;;23.05;13.25;;;;;;;9.68;95.90;98162.59;8391533;28;20505;-79
2022/09/26 17:55:10;;;;;;;21.27;12.70;;;;;;;9.63;95.83;98165.47;8395423;28;20063;-79
2022/09/26 17:59:23;;;;;;;22.73;13.25;;;;;;;9.56;95.99;98165.19;8396598;28;20089;-79
2022/09/26 18:03:30;;;;;;;23.50;13.25;;;;;;;9.49;95.74;98169.50;8395612;28;20044;-79
2022/09/26 18:07:38;;;;;;;22.42;12.73;;;;;;;9.43;95.64;98166.19;8392073;28;20040;-79
2022/09/26 18:11:40;;;;;;;30.43;17.03;;;;;;;9.34;95.42;98157.38;8420482;28;20048;-80
2022/09/26 18:15:41;;;;;;;49.03;25.15;;;;;;;9.26;95.57;98160.88;8421854;28;20301;-80
2022/09/26 18:19:43;;;;;;;44.70;24.88;;;;;;;9.21;95.37;98158.34;8408509;28;20041;-79
2022/09/26 18:23:51;;;;;;;44.00;24.38;;;;;;;9.17;95.44;98147.44;8418227;28;20041;-79
2022/09/26 18:27:53;;;;;;;46.83;25.95;;;;;;;9.12;95.54;98144.13;8403331;28;20541;-79
2022/09/26 18:31:55;;;;;;;44.50;25.85;;;;;;;9.10;95.46;98135.56;8402794;28;20059;-79
2022/09/26 18:35:59;;;;;;;39.97;21.88;;;;;;;9.08;95.59;98143.19;8372496;28;20053;-79
2022/09/26 18:40:04;;;;;;;36.97;22.48;;;;;;;9.05;95.38;98149.22;8365407;28;20049;-79
2022/09/26 18:44:13;;;;;;;45.50;25.20;;;;;;;9.01;95.44;98142.91;8302668;28;20482;-79
2022/09/26 18:48:30;;;;;;;55.45;28.55;;;;;;;8.97;95.54;98147.34;8344333;28;20057;-79
2022/09/26 18:52:33;;;;;;;53.80;28.55;;;;;;;8.94;95.29;98139.91;8361022;28;20075;-80
2022/09/26 19:01:20;;;;;;;49.60;26.88;;;;;;;8.94;95.79;98126.44;8355722;28;20069;-80
2022/09/26 19:05:21;;;;;;;40.58;22.90;;;;;;;8.95;95.83;98128.03;8314751;28;20041;-80
2022/09/26 19:09:24;;;;;;;37.67;20.75;;;;;;;8.93;95.97;98125.66;8341143;28;20072;-80
2022/09/26 19:13:31;;;;;;;36.38;22.08;;;;;;;8.95;95.72;98117.25;8348082;28;20069;-79
2022/09/26 19:17:34;;;;;;;47.70;26.88;;;;;;;8.99;96.10;98118.22;8320184;28;20071;-79
2022/09/26 19:21:40;;;;;;;46.85;28.02;;;;;;;9.04;96.08;98115.34;8341615;28;20417;-78